createdAt,value
2018-12-26T00:00:47.374Z,8.23
2018-12-26T00:01:52.692Z,8.80
2018-12-26T00:02:57.263Z,7.42
2018-12-26T00:04:01.814Z,14.90
2018-12-26T00:05:06.409Z,11.85
2018-12-26T00:06:11.043Z,9.30
2018-12-26T00:07:15.774Z,11.20
2018-12-26T00:08:20.363Z,17.77
2018-12-26T00:09:24.929Z,8.18
2018-12-26T00:10:29.513Z,7.28
2018-12-26T00:11:34.080Z,12.47
2018-12-26T00:12:38.673Z,11.93
2018-12-26T00:13:43.219Z,7.92
2018-12-26T00:14:47.867Z,8.28
2018-12-26T00:15:52.460Z,12.85
2018-12-26T00:16:57.019Z,11.50
2018-12-26T00:18:01.587Z,8.90
2018-12-26T00:19:06.111Z,12.58
2018-12-26T00:20:10.687Z,11.80
2018-12-26T00:21:15.317Z,11.50
2018-12-26T00:22:19.874Z,17.98
2018-12-26T00:23:24.428Z,12.70
2018-12-26T00:24:28.956Z,6.20
2018-12-26T00:25:33.655Z,11.85
2018-12-26T00:26:38.303Z,7.05
2018-12-26T00:27:42.865Z,16.70
2018-12-26T00:28:47.410Z,12.75
2018-12-26T00:29:52.023Z,12.00
2018-12-26T00:30:56.582Z,10.82
2018-12-26T00:32:01.111Z,19.17
2018-12-26T00:33:05.744Z,9.50
2018-12-26T00:34:10.380Z,8.00
2018-12-26T00:35:14.954Z,10.75
2018-12-26T00:36:19.594Z,9.43
2018-12-26T00:37:24.170Z,9.13
2018-12-26T00:38:28.724Z,6.37
2018-12-26T00:39:33.358Z,16.52
2018-12-26T00:40:37.992Z,16.55
2018-12-26T00:41:42.619Z,10.15
2018-12-26T00:42:47.172Z,15.95
2018-12-26T00:43:51.757Z,11.70
2018-12-26T00:44:56.462Z,7.80
2018-12-26T00:46:01.110Z,8.38
2018-12-26T00:47:05.650Z,7.65
2018-12-26T00:48:10.212Z,20.82
2018-12-26T00:49:14.759Z,18.73
2018-12-26T00:50:19.322Z,8.40
2018-12-26T00:51:23.963Z,12.85
2018-12-26T00:52:28.523Z,9.15
2018-12-26T00:53:33.067Z,9.65
2018-12-26T00:54:37.632Z,11.12
2018-12-26T00:55:42.203Z,9.50
2018-12-26T00:56:46.749Z,11.03
2018-12-26T00:57:51.359Z,9.23
2018-12-26T00:58:56.004Z,14.45
2018-12-26T01:00:00.559Z,10.72
2018-12-26T01:01:05.199Z,7.00
2018-12-26T01:02:09.799Z,8.53
2018-12-26T01:03:14.379Z,11.88
2018-12-26T01:04:18.950Z,11.75
2018-12-26T01:05:23.549Z,20.43
2018-12-26T01:06:28.190Z,14.78
2018-12-26T01:07:32.742Z,11.05
2018-12-26T01:08:37.335Z,14.93
2018-12-26T01:09:41.939Z,12.03
2018-12-26T01:10:46.530Z,12.88
2018-12-26T01:11:51.143Z,11.33
2018-12-26T01:12:55.754Z,10.23
2018-12-26T01:14:00.315Z,12.98
2018-12-26T01:15:05.031Z,11.03
2018-12-26T01:16:09.605Z,15.85
2018-12-26T01:17:14.158Z,15.60
2018-12-26T01:18:18.790Z,14.68
2018-12-26T01:19:23.374Z,14.65
2018-12-26T01:20:27.935Z,12.05
2018-12-26T01:21:32.458Z,12.73
2018-12-26T01:22:37.004Z,15.23
2018-12-26T01:23:41.632Z,18.00
2018-12-26T01:24:46.186Z,13.22
2018-12-26T01:25:50.896Z,16.50
2018-12-26T01:26:55.478Z,14.38
2018-12-26T01:28:00.998Z,14.38
2018-12-26T01:29:05.545Z,13.45
2018-12-26T01:30:10.207Z,15.75
2018-12-26T01:31:14.774Z,19.57
2018-12-26T01:32:19.566Z,11.78
2018-12-26T01:33:24.135Z,13.40
2018-12-26T01:34:30.032Z,14.38
2018-12-26T01:35:34.616Z,12.18
2018-12-26T01:36:39.273Z,14.15
2018-12-26T01:37:43.918Z,14.68
2018-12-26T01:38:48.464Z,18.95
2018-12-26T01:39:53.022Z,16.48
2018-12-26T01:40:57.589Z,20.43
2018-12-26T01:42:02.165Z,20.17
2018-12-26T01:43:06.742Z,13.83
2018-12-26T01:44:11.316Z,13.88
2018-12-26T01:45:15.903Z,18.80
2018-12-26T01:46:20.512Z,13.35
2018-12-26T01:47:25.058Z,12.47
2018-12-26T01:48:29.611Z,18.67
2018-12-26T01:49:34.158Z,15.55
2018-12-26T01:50:38.739Z,12.82
2018-12-26T01:51:43.382Z,14.23
2018-12-26T01:52:47.955Z,11.38
2018-12-26T01:53:52.482Z,12.50
2018-12-26T01:54:57.080Z,11.03
2018-12-26T01:56:01.699Z,13.38
2018-12-26T01:57:06.306Z,17.42
2018-12-26T01:58:10.899Z,14.20
2018-12-26T01:59:15.572Z,15.18
2018-12-26T02:00:20.103Z,13.08
2018-12-26T02:01:24.686Z,15.23
2018-12-26T02:02:29.296Z,13.85
2018-12-26T02:03:33.814Z,9.38
2018-12-26T02:04:38.335Z,8.88
2018-12-26T02:05:42.865Z,11.65
2018-12-26T02:06:47.539Z,10.85
2018-12-26T02:07:52.083Z,10.38
2018-12-26T02:08:56.745Z,9.18
2018-12-26T02:10:01.314Z,14.20
2018-12-26T02:11:06.026Z,12.73
2018-12-26T02:12:10.587Z,11.28
2018-12-26T02:13:15.116Z,12.65
2018-12-26T02:14:19.696Z,8.10
2018-12-26T02:15:24.318Z,11.60
2018-12-26T02:16:28.982Z,12.70
2018-12-26T02:17:33.605Z,9.30
2018-12-26T02:18:38.207Z,16.20
2018-12-26T02:19:42.980Z,9.55
2018-12-26T02:20:47.591Z,18.82
2018-12-26T02:21:52.155Z,8.30
2018-12-26T02:22:56.726Z,8.33
2018-12-26T02:24:01.311Z,12.55
2018-12-26T02:25:06.247Z,9.68
2018-12-26T02:26:11.776Z,8.30
2018-12-26T02:27:16.334Z,11.90
2018-12-26T02:28:20.948Z,7.40
2018-12-26T02:29:25.615Z,11.73
2018-12-26T02:30:30.176Z,10.45
2018-12-26T02:31:34.783Z,10.90
2018-12-26T02:32:39.352Z,13.18
2018-12-26T02:33:43.910Z,10.75
2018-12-26T02:34:48.489Z,13.32
2018-12-26T02:35:53.015Z,18.50
2018-12-26T02:36:57.564Z,9.80
2018-12-26T02:38:02.096Z,12.53
2018-12-26T02:39:07.471Z,13.55
2018-12-26T02:40:12.019Z,9.48
2018-12-26T02:41:16.678Z,9.90
2018-12-26T02:42:21.306Z,18.90
2018-12-26T02:43:25.877Z,15.40
2018-12-26T02:44:30.482Z,12.50
2018-12-26T02:45:35.083Z,12.90
2018-12-26T02:46:39.655Z,9.93
2018-12-26T02:47:44.200Z,8.63
2018-12-26T02:48:48.857Z,13.50
2018-12-26T02:49:53.447Z,17.40
2018-12-26T02:50:58.168Z,13.90
2018-12-26T02:52:02.725Z,10.65
2018-12-26T02:53:07.264Z,11.90
2018-12-26T02:54:11.808Z,8.70
2018-12-26T02:55:16.349Z,10.95
2018-12-26T02:56:20.910Z,10.00
2018-12-26T02:57:25.488Z,9.60
2018-12-26T02:58:30.026Z,10.18
2018-12-26T02:59:34.586Z,10.08
2018-12-26T03:00:39.316Z,11.80
2018-12-26T03:01:43.843Z,12.35
2018-12-26T03:02:48.394Z,10.68
2018-12-26T03:03:52.926Z,11.18
2018-12-26T03:04:57.484Z,10.30
2018-12-26T03:06:02.015Z,9.43
2018-12-26T03:07:06.567Z,13.50
2018-12-26T03:08:12.076Z,11.53
2018-12-26T03:09:16.675Z,10.13
2018-12-26T03:10:21.404Z,13.80
2018-12-26T03:11:26.034Z,11.95
2018-12-26T03:12:30.623Z,12.95
2018-12-26T03:13:35.254Z,12.82
2018-12-26T03:14:39.893Z,8.55
2018-12-26T03:15:44.590Z,10.40
2018-12-26T03:16:49.163Z,14.13
2018-12-26T03:17:53.780Z,11.78
2018-12-26T03:18:58.361Z,11.20
2018-12-26T03:20:03.018Z,13.40
2018-12-26T03:21:07.607Z,14.75
2018-12-26T03:22:12.167Z,11.95
2018-12-26T03:23:16.729Z,18.87
2018-12-26T03:24:21.280Z,19.02
2018-12-26T03:25:25.866Z,14.65
2018-12-26T03:26:30.447Z,19.20
2018-12-26T03:27:34.987Z,17.48
2018-12-26T03:28:39.536Z,17.15
2018-12-26T03:29:44.123Z,17.82
2018-12-26T03:30:48.689Z,19.65
2018-12-26T03:31:53.368Z,17.77
2018-12-26T03:32:57.907Z,15.40
2018-12-26T03:34:02.463Z,15.23
2018-12-26T03:35:07.198Z,16.45
2018-12-26T03:36:11.770Z,18.25
2018-12-26T03:37:16.327Z,16.15
2018-12-26T03:38:21.150Z,18.80
2018-12-26T03:39:25.776Z,17.42
2018-12-26T03:40:31.302Z,18.52
2018-12-26T03:41:36.229Z,22.13
2018-12-26T03:42:41.039Z,20.80
2018-12-26T03:43:45.686Z,17.57
2018-12-26T03:44:51.064Z,17.65
2018-12-26T03:45:56.570Z,19.17
2018-12-26T03:47:01.690Z,25.12
2018-12-26T03:48:06.370Z,21.27
2018-12-26T03:49:11.023Z,21.35
2018-12-26T03:50:15.762Z,22.52
2018-12-26T03:51:20.394Z,18.30
2018-12-26T03:52:25.106Z,24.55
2018-12-26T03:53:29.721Z,18.25
2018-12-26T03:54:34.306Z,25.37
2018-12-26T03:55:38.862Z,18.02
2018-12-26T03:56:43.474Z,23.52
2018-12-26T03:57:48.108Z,20.15
2018-12-26T03:58:52.922Z,24.40
2018-12-26T03:59:57.616Z,24.50
2018-12-26T04:01:02.171Z,17.65
2018-12-26T04:02:06.812Z,21.35
2018-12-26T04:03:11.427Z,21.57
2018-12-26T04:04:16.078Z,20.17
2018-12-26T04:05:20.678Z,20.02
2018-12-26T04:06:25.288Z,22.58
2018-12-26T04:07:29.955Z,20.72
2018-12-26T04:08:34.579Z,24.25
2018-12-26T04:09:39.293Z,24.57
2018-12-26T04:10:43.980Z,25.00
2018-12-26T04:11:48.527Z,20.82
2018-12-26T04:12:53.617Z,19.50
2018-12-26T04:13:59.287Z,21.95
2018-12-26T04:15:03.968Z,20.45
2018-12-26T04:16:08.581Z,21.25
2018-12-26T04:17:13.235Z,20.15
2018-12-26T04:18:17.934Z,21.25
2018-12-26T04:19:22.558Z,25.00
2018-12-26T04:20:27.195Z,21.48
2018-12-26T04:21:31.797Z,23.75
2018-12-26T04:22:36.494Z,21.75
2018-12-26T04:23:41.055Z,22.27
2018-12-26T04:24:47.463Z,34.90
2018-12-26T04:25:52.188Z,28.62
2018-12-26T04:26:56.736Z,26.80
2018-12-26T04:28:01.292Z,49.95
2018-12-26T04:29:05.934Z,20.72
2018-12-26T04:30:11.519Z,26.75
2018-12-26T04:31:16.080Z,30.72
2018-12-26T04:32:20.711Z,21.05
2018-12-26T04:33:25.313Z,26.73
2018-12-26T04:34:29.861Z,20.15
2018-12-26T04:35:34.439Z,26.10
2018-12-26T04:36:38.991Z,29.70
2018-12-26T04:37:43.531Z,22.73
2018-12-26T04:38:48.148Z,21.87
2018-12-26T04:39:52.708Z,25.12
2018-12-26T04:40:57.264Z,22.90
2018-12-26T04:42:01.934Z,32.58
2018-12-26T04:43:06.504Z,25.00
2018-12-26T04:44:11.104Z,27.15
2018-12-26T04:45:15.718Z,22.82
2018-12-26T04:46:20.271Z,20.45
2018-12-26T04:47:24.846Z,34.30
2018-12-26T04:48:29.407Z,21.85
2018-12-26T04:49:33.991Z,22.98
2018-12-26T04:50:38.539Z,19.98
2018-12-26T04:51:43.098Z,22.32
2018-12-26T04:52:47.688Z,26.35
2018-12-26T04:53:52.270Z,39.75
2018-12-26T04:54:56.819Z,30.68
2018-12-26T04:56:01.384Z,21.60
2018-12-26T04:57:05.970Z,29.10
2018-12-26T04:58:10.508Z,24.75
2018-12-26T04:59:15.199Z,27.35
2018-12-26T05:00:19.792Z,21.93
2018-12-26T05:01:24.335Z,21.30
2018-12-26T05:02:29.042Z,21.50
2018-12-26T05:03:33.618Z,31.50
2018-12-26T05:04:38.266Z,30.60
2018-12-26T05:05:42.860Z,22.45
2018-12-26T05:06:47.388Z,21.33
2018-12-26T05:07:52.010Z,28.67
2018-12-26T05:08:56.594Z,24.25
2018-12-26T05:10:01.167Z,25.08
2018-12-26T05:11:05.774Z,22.07
2018-12-26T05:12:10.336Z,22.73
2018-12-26T05:13:14.891Z,24.92
2018-12-26T05:14:19.539Z,25.30
2018-12-26T05:15:24.094Z,24.23
2018-12-26T05:16:28.710Z,26.65
2018-12-26T05:17:33.291Z,29.60
2018-12-26T05:18:37.918Z,25.32
2018-12-26T05:19:42.614Z,28.60
2018-12-26T05:20:47.211Z,26.33
2018-12-26T05:21:51.876Z,28.62
2018-12-26T05:22:56.457Z,31.62
2018-12-26T05:24:01.031Z,27.82
2018-12-26T05:25:05.779Z,27.65
2018-12-26T05:26:10.331Z,27.25
2018-12-26T05:27:14.894Z,27.95
2018-12-26T05:28:19.496Z,30.60
2018-12-26T05:29:24.065Z,27.10
2018-12-26T05:30:29.633Z,29.60
2018-12-26T05:31:34.186Z,32.20
2018-12-26T05:32:38.737Z,27.67
2018-12-26T05:33:43.291Z,30.23
2018-12-26T05:34:47.848Z,26.73
2018-12-26T05:35:52.402Z,27.00
2018-12-26T05:36:56.942Z,28.95
2018-12-26T05:38:01.511Z,29.32
2018-12-26T05:39:07.601Z,28.80
2018-12-26T05:40:12.159Z,30.30
2018-12-26T05:41:16.716Z,28.38
2018-12-26T05:42:21.299Z,26.05
2018-12-26T05:43:25.910Z,26.50
2018-12-26T05:44:30.465Z,34.70
2018-12-26T05:45:34.996Z,30.23
2018-12-26T05:46:39.691Z,65.70
2018-12-26T05:47:44.379Z,51.65
2018-12-26T05:48:49.022Z,29.37
2018-12-26T05:49:53.666Z,50.10
2018-12-26T05:50:58.281Z,31.20
2018-12-26T05:52:02.840Z,50.03
2018-12-26T05:53:07.406Z,39.33
2018-12-26T05:54:12.942Z,33.65
2018-12-26T05:55:17.479Z,33.28
2018-12-26T05:56:22.041Z,31.68
2018-12-26T05:57:26.582Z,32.75
2018-12-26T05:58:31.137Z,44.48
2018-12-26T05:59:35.698Z,51.10
2018-12-26T06:00:40.299Z,34.45
2018-12-26T06:01:44.914Z,34.33
2018-12-26T06:02:49.454Z,30.95
2018-12-26T06:03:54.019Z,42.78
2018-12-26T06:04:58.661Z,29.48
2018-12-26T06:06:03.190Z,33.18
2018-12-26T06:07:07.723Z,42.08
2018-12-26T06:08:12.350Z,31.42
2018-12-26T06:09:17.895Z,34.70
2018-12-26T06:10:22.503Z,31.50
2018-12-26T06:11:27.086Z,33.53
2018-12-26T06:12:31.674Z,33.08
2018-12-26T06:13:36.218Z,30.77
2018-12-26T06:14:40.754Z,33.48
2018-12-26T06:15:45.376Z,33.95
2018-12-26T06:16:49.950Z,32.90
2018-12-26T06:17:54.511Z,31.68
2018-12-26T06:18:59.061Z,30.70
2018-12-26T06:20:03.723Z,32.23
2018-12-26T06:21:08.414Z,33.38
2018-12-26T06:22:13.008Z,30.45
2018-12-26T06:23:17.547Z,33.23
2018-12-26T06:24:22.157Z,31.02
2018-12-26T06:25:26.728Z,31.07
2018-12-26T06:26:31.367Z,28.47
2018-12-26T06:27:36.017Z,29.95
2018-12-26T06:28:40.571Z,31.05
2018-12-26T06:29:45.135Z,32.50
2018-12-26T06:30:49.716Z,34.18
2018-12-26T06:31:54.326Z,32.73
2018-12-26T06:32:58.877Z,31.20
2018-12-26T06:34:03.435Z,31.57
2018-12-26T06:35:07.969Z,36.80
2018-12-26T06:36:12.558Z,31.95
2018-12-26T06:37:17.126Z,34.35
2018-12-26T06:38:21.674Z,41.98
2018-12-26T06:39:26.222Z,33.20
2018-12-26T06:40:30.851Z,29.32
2018-12-26T06:41:35.450Z,34.08
2018-12-26T06:42:40.063Z,33.08
2018-12-26T06:43:44.650Z,30.48
2018-12-26T06:44:49.199Z,38.17
2018-12-26T06:45:53.743Z,38.35
2018-12-26T06:46:58.311Z,32.13
2018-12-26T06:48:02.887Z,32.08
2018-12-26T06:49:07.436Z,30.12
2018-12-26T06:50:11.978Z,34.60
2018-12-26T06:51:16.648Z,31.05
2018-12-26T06:52:21.215Z,35.43
2018-12-26T06:53:25.834Z,31.70
2018-12-26T06:54:30.409Z,31.02
2018-12-26T06:55:35.007Z,33.33
2018-12-26T06:56:39.592Z,31.77
2018-12-26T06:57:44.149Z,34.95
2018-12-26T06:58:48.951Z,30.95
2018-12-26T06:59:53.464Z,33.15
2018-12-26T07:00:58.063Z,31.82
2018-12-26T07:02:02.614Z,35.20
2018-12-26T07:03:07.191Z,31.77
2018-12-26T07:04:11.763Z,30.55
2018-12-26T07:05:16.306Z,32.83
2018-12-26T07:06:20.879Z,32.65
2018-12-26T07:07:25.422Z,29.07
2018-12-26T07:08:29.970Z,29.18
2018-12-26T07:09:34.540Z,33.92
2018-12-26T07:10:39.072Z,35.23
2018-12-26T07:11:43.610Z,35.23
2018-12-26T07:12:48.191Z,34.92
2018-12-26T07:13:52.869Z,31.27
2018-12-26T07:14:57.437Z,29.25
2018-12-26T07:16:01.980Z,34.95
2018-12-26T07:17:06.564Z,36.28
2018-12-26T07:18:11.120Z,31.30
2018-12-26T07:19:15.651Z,35.05
2018-12-26T07:20:20.248Z,33.58
2018-12-26T07:21:24.818Z,37.78
2018-12-26T07:22:29.399Z,31.85
2018-12-26T07:23:34.004Z,32.90
2018-12-26T07:24:38.563Z,33.65
2018-12-26T07:25:44.086Z,36.30
2018-12-26T07:26:48.755Z,33.35
2018-12-26T07:27:53.383Z,33.48
2018-12-26T07:28:57.923Z,32.95
2018-12-26T07:30:02.513Z,36.77
2018-12-26T07:31:07.105Z,39.50
2018-12-26T07:32:11.731Z,40.10
2018-12-26T07:33:16.267Z,38.28
2018-12-26T07:34:20.813Z,35.48
2018-12-26T07:35:25.359Z,34.67
2018-12-26T07:36:29.904Z,36.25
2018-12-26T07:37:34.497Z,34.78
2018-12-26T07:38:39.027Z,33.58
2018-12-26T07:39:43.684Z,29.32
2018-12-26T07:40:48.229Z,33.70
2018-12-26T07:41:52.796Z,38.38
2018-12-26T07:42:57.400Z,32.67
2018-12-26T07:44:01.943Z,34.63
2018-12-26T07:45:07.588Z,34.75
2018-12-26T07:46:12.167Z,35.03
2018-12-26T07:47:16.742Z,35.58
2018-12-26T07:48:21.346Z,34.83
2018-12-26T07:49:25.983Z,43.08
2018-12-26T07:50:30.563Z,38.28
2018-12-26T07:51:35.127Z,35.78
2018-12-26T07:52:39.811Z,40.08
2018-12-26T07:53:44.382Z,31.33
2018-12-26T07:54:48.938Z,38.00
2018-12-26T07:55:53.495Z,37.13
2018-12-26T07:56:58.041Z,35.20
2018-12-26T07:58:02.616Z,41.40
2018-12-26T07:59:07.246Z,28.45
2018-12-26T08:00:11.788Z,35.78
2018-12-26T08:01:16.343Z,49.83
2018-12-26T08:02:20.895Z,61.02
2018-12-26T08:03:25.450Z,55.83
2018-12-26T08:04:30.095Z,40.80
2018-12-26T08:05:34.668Z,37.70
2018-12-26T08:06:39.302Z,55.43
2018-12-26T08:07:43.895Z,41.50
2018-12-26T08:08:48.458Z,30.88
2018-12-26T08:09:53.033Z,55.03
2018-12-26T08:10:58.558Z,43.55
2018-12-26T08:12:03.258Z,71.53
2018-12-26T08:13:07.796Z,38.92
2018-12-26T08:14:12.496Z,31.48
2018-12-26T08:15:17.019Z,30.08
2018-12-26T08:16:21.559Z,50.00
2018-12-26T08:17:26.291Z,57.27
2018-12-26T08:18:30.831Z,35.70
2018-12-26T08:19:35.406Z,36.40
2018-12-26T08:20:39.936Z,34.03
2018-12-26T08:21:44.567Z,49.42
2018-12-26T08:22:50.166Z,38.17
2018-12-26T08:23:54.741Z,33.95
2018-12-26T08:24:59.310Z,41.35
2018-12-26T08:26:03.870Z,31.68
2018-12-26T08:27:08.398Z,33.18
2018-12-26T08:28:13.139Z,40.05
2018-12-26T08:29:17.730Z,27.40
2018-12-26T08:30:22.270Z,29.40
2018-12-26T08:31:26.812Z,48.60
2018-12-26T08:32:31.394Z,35.60
2018-12-26T08:33:36.056Z,39.98
2018-12-26T08:34:40.648Z,31.73
2018-12-26T08:35:45.192Z,37.33
2018-12-26T08:36:49.784Z,103.90
2018-12-26T08:37:54.367Z,139.40
2018-12-26T08:39:00.029Z,59.95
2018-12-26T08:40:05.090Z,66.87
2018-12-26T08:41:09.722Z,33.20
2018-12-26T08:42:14.267Z,38.40
2018-12-26T08:43:18.858Z,63.40
2018-12-26T08:44:23.424Z,101.07
2018-12-26T08:45:27.997Z,34.23
2018-12-26T08:46:32.565Z,36.83
2018-12-26T08:47:37.131Z,54.98
2018-12-26T08:48:41.678Z,96.35
2018-12-26T08:49:46.341Z,39.18
2018-12-26T08:50:51.004Z,31.37
2018-12-26T08:51:55.595Z,34.80
2018-12-26T08:53:00.167Z,33.70
2018-12-26T08:54:04.771Z,30.82
2018-12-26T08:55:09.419Z,34.53
2018-12-26T08:56:13.961Z,47.27
2018-12-26T08:57:18.561Z,71.42
2018-12-26T08:58:23.122Z,33.53
2018-12-26T08:59:27.726Z,30.15
2018-12-26T09:00:32.390Z,45.98
2018-12-26T09:01:36.983Z,70.70
2018-12-26T09:02:41.582Z,32.15
2018-12-26T09:03:46.123Z,47.13
2018-12-26T09:04:50.698Z,29.40
2018-12-26T09:05:55.298Z,71.82
2018-12-26T09:06:59.865Z,32.55
2018-12-26T09:08:04.454Z,127.32
2018-12-26T09:09:09.016Z,53.38
2018-12-26T09:10:13.619Z,33.85
2018-12-26T09:11:18.223Z,63.35
2018-12-26T09:12:22.756Z,64.35
2018-12-26T09:13:27.305Z,55.58
2018-12-26T09:14:31.919Z,66.25
2018-12-26T09:15:36.547Z,48.33
2018-12-26T09:16:41.126Z,39.33
2018-12-26T09:17:45.748Z,29.67
2018-12-26T09:18:50.491Z,30.43
2018-12-26T09:19:55.050Z,49.90
2018-12-26T09:20:59.671Z,29.92
2018-12-26T09:22:04.224Z,33.35
2018-12-26T09:23:09.564Z,33.00
2018-12-26T09:24:14.170Z,43.48
2018-12-26T09:25:18.791Z,35.70
2018-12-26T09:26:23.407Z,30.10
2018-12-26T09:27:28.088Z,33.30
2018-12-26T09:28:34.021Z,34.27
2018-12-26T09:29:38.583Z,29.90
2018-12-26T09:30:43.189Z,30.80
2018-12-26T09:31:47.770Z,33.30
2018-12-26T09:32:52.404Z,32.17
2018-12-26T09:33:56.966Z,42.38
2018-12-26T09:35:01.673Z,31.23
2018-12-26T09:36:06.283Z,33.55
2018-12-26T09:37:10.916Z,38.65
2018-12-26T09:38:15.462Z,44.38
2018-12-26T09:39:20.027Z,39.18
2018-12-26T09:40:24.662Z,38.92
2018-12-26T09:41:29.249Z,37.40
2018-12-26T09:42:33.834Z,35.50
2018-12-26T09:43:38.375Z,35.43
2018-12-26T09:44:43.099Z,48.90
2018-12-26T09:45:47.642Z,37.08
2018-12-26T09:46:52.275Z,32.45
2018-12-26T09:47:56.946Z,41.28
2018-12-26T09:49:01.516Z,32.98
2018-12-26T09:50:06.309Z,44.13
2018-12-26T09:51:10.850Z,39.60
2018-12-26T09:52:15.423Z,32.53
2018-12-26T09:53:19.982Z,36.28
2018-12-26T09:54:24.983Z,40.43
2018-12-26T09:55:29.616Z,36.77
2018-12-26T09:56:34.186Z,53.87
2018-12-26T09:57:38.774Z,36.03
2018-12-26T09:58:43.319Z,32.85
2018-12-26T09:59:47.888Z,46.48
2018-12-26T10:00:52.514Z,54.65
2018-12-26T10:01:57.065Z,50.28
2018-12-26T10:03:01.595Z,58.70
2018-12-26T10:04:06.259Z,34.10
2018-12-26T10:05:10.863Z,34.48
2018-12-26T10:06:15.402Z,38.88
2018-12-26T10:07:20.006Z,45.67
2018-12-26T10:08:24.555Z,34.00
2018-12-26T10:09:29.182Z,215.47
2018-12-26T10:10:33.774Z,233.68
2018-12-26T10:11:38.398Z,100.50
2018-12-26T10:12:42.978Z,104.00
2018-12-26T10:13:47.523Z,38.42
2018-12-26T10:14:52.161Z,105.72
2018-12-26T10:15:56.742Z,35.48
2018-12-26T10:17:01.301Z,25.90
2018-12-26T10:18:05.854Z,29.27
2018-12-26T10:19:10.452Z,29.32
2018-12-26T10:20:15.095Z,27.22
2018-12-26T10:21:19.698Z,31.93
2018-12-26T10:22:24.275Z,28.57
2018-12-26T10:23:28.924Z,28.20
2018-12-26T10:24:33.482Z,23.73
2018-12-26T10:25:38.092Z,24.35
2018-12-26T10:26:42.633Z,24.55
2018-12-26T10:27:47.415Z,42.90
2018-12-26T10:28:51.983Z,26.33
2018-12-26T10:29:56.627Z,26.55
2018-12-26T10:31:01.202Z,25.08
2018-12-26T10:32:05.838Z,24.20
2018-12-26T10:33:10.453Z,25.90
2018-12-26T10:34:15.011Z,28.50
2018-12-26T10:35:19.655Z,28.65
2018-12-26T10:36:24.324Z,34.25
2018-12-26T10:37:28.976Z,32.88
2018-12-26T10:38:33.614Z,35.88
2018-12-26T10:39:38.185Z,30.23
2018-12-26T10:40:42.747Z,24.35
2018-12-26T10:41:47.313Z,22.75
2018-12-26T10:42:52.015Z,32.25
2018-12-26T10:43:56.662Z,29.60
2018-12-26T10:45:01.295Z,20.30
2018-12-26T10:46:05.871Z,33.78
2018-12-26T10:47:10.479Z,31.35
2018-12-26T10:48:15.089Z,21.55
2018-12-26T10:49:19.661Z,21.02
2018-12-26T10:50:24.261Z,21.75
2018-12-26T10:51:28.842Z,24.40
2018-12-26T10:52:33.517Z,37.95
2018-12-26T10:53:38.187Z,35.17
2018-12-26T10:54:42.796Z,23.42
2018-12-26T10:55:47.400Z,23.62
2018-12-26T10:56:52.135Z,19.95
2018-12-26T10:57:56.739Z,37.28
2018-12-26T10:59:09.722Z,22.87
2018-12-26T11:00:09.775Z,28.35
2018-12-26T11:01:14.328Z,26.60
2018-12-26T11:02:18.966Z,21.17
2018-12-26T11:03:23.582Z,22.15
2018-12-26T11:04:28.131Z,27.22
2018-12-26T11:05:32.925Z,23.65
2018-12-26T11:06:37.478Z,29.27
2018-12-26T11:07:42.076Z,33.23
2018-12-26T11:08:46.800Z,34.20
2018-12-26T11:09:51.348Z,26.23
2018-12-26T11:10:55.882Z,22.13
2018-12-26T11:12:00.525Z,43.38
2018-12-26T11:13:05.105Z,24.60
2018-12-26T11:14:09.702Z,38.58
2018-12-26T11:15:14.258Z,31.15
2018-12-26T11:16:18.806Z,28.10
2018-12-26T11:17:23.618Z,39.18
2018-12-26T11:18:28.322Z,43.02
2018-12-26T11:19:32.958Z,21.00
2018-12-26T11:20:37.586Z,31.37
2018-12-26T11:21:42.166Z,27.58
2018-12-26T11:22:46.824Z,32.20
2018-12-26T11:23:51.368Z,26.27
2018-12-26T11:24:55.922Z,31.80
2018-12-26T11:26:00.536Z,21.90
2018-12-26T11:27:05.191Z,32.83
2018-12-26T11:28:09.830Z,41.50
2018-12-26T11:29:18.559Z,29.65
2018-12-26T11:30:20.734Z,39.67
2018-12-26T11:31:25.439Z,56.30
2018-12-26T11:32:30.054Z,27.45
2018-12-26T11:33:34.631Z,70.32
2018-12-26T11:34:39.242Z,27.58
2018-12-26T11:35:43.822Z,33.40
2018-12-26T11:36:48.430Z,30.10
2018-12-26T11:37:53.128Z,35.60
2018-12-26T11:38:57.805Z,31.80
2018-12-26T11:40:02.402Z,27.75
2018-12-26T11:41:06.951Z,24.05
2018-12-26T11:42:11.599Z,31.37
2018-12-26T11:43:16.280Z,27.13
2018-12-26T11:44:20.887Z,25.15
2018-12-26T11:45:25.426Z,21.97
2018-12-26T11:46:30.015Z,29.30
2018-12-26T11:47:34.579Z,38.42
2018-12-26T11:48:39.235Z,25.35
2018-12-26T11:49:43.836Z,25.88
2018-12-26T11:50:48.466Z,27.22
2018-12-26T11:51:53.091Z,27.42
2018-12-26T11:52:57.664Z,33.33
2018-12-26T11:54:02.306Z,28.42
2018-12-26T11:55:07.011Z,32.25
2018-12-26T11:56:11.562Z,24.75
2018-12-26T11:57:16.138Z,38.25
2018-12-26T11:58:20.745Z,32.67
2018-12-26T11:59:27.253Z,25.17
2018-12-26T12:00:31.555Z,30.05
2018-12-26T12:01:36.124Z,25.88
2018-12-26T12:02:40.738Z,28.30
2018-12-26T12:03:45.447Z,31.48
2018-12-26T12:04:50.071Z,32.67
2018-12-26T12:05:54.760Z,25.90
2018-12-26T12:06:59.313Z,26.07
2018-12-26T12:08:03.863Z,25.77
2018-12-26T12:09:08.585Z,26.30
2018-12-26T12:10:13.117Z,30.77
2018-12-26T12:11:17.723Z,24.52
2018-12-26T12:12:22.291Z,26.02
2018-12-26T12:13:26.867Z,25.92
2018-12-26T12:14:31.557Z,29.48
2018-12-26T12:15:36.166Z,24.00
2018-12-26T12:16:40.805Z,42.40
2018-12-26T12:17:45.427Z,37.90
2018-12-26T12:18:50.138Z,39.92
2018-12-26T12:19:54.869Z,29.07
2018-12-26T12:20:59.463Z,30.08
2018-12-26T12:22:04.140Z,23.77
2018-12-26T12:23:08.763Z,26.97
2018-12-26T12:24:13.491Z,23.05
2018-12-26T12:25:18.119Z,26.35
2018-12-26T12:26:22.720Z,45.83
2018-12-26T12:27:27.362Z,25.75
2018-12-26T12:28:32.093Z,23.67
2018-12-26T12:29:37.092Z,23.45
2018-12-26T12:30:42.194Z,23.40
2018-12-26T12:31:46.942Z,23.12
2018-12-26T12:32:51.493Z,26.55
2018-12-26T12:33:56.030Z,25.15
2018-12-26T12:35:01.135Z,26.75
2018-12-26T12:36:05.985Z,26.87
2018-12-26T12:37:11.214Z,23.22
2018-12-26T12:38:15.742Z,26.02
2018-12-26T12:39:20.472Z,26.82
2018-12-26T12:40:25.143Z,25.17
2018-12-26T12:41:29.818Z,24.00
2018-12-26T12:42:34.536Z,21.97
2018-12-26T12:43:39.178Z,21.95
2018-12-26T12:44:43.811Z,23.98
2018-12-26T12:45:48.848Z,27.55
2018-12-26T12:46:53.559Z,24.15
2018-12-26T12:47:58.249Z,27.65
2018-12-26T12:49:02.802Z,21.20
2018-12-26T12:50:07.596Z,23.80
2018-12-26T12:51:12.116Z,26.35
2018-12-26T12:52:16.751Z,23.38
2018-12-26T12:53:21.348Z,28.15
2018-12-26T12:54:25.945Z,36.85
2018-12-26T12:55:30.529Z,38.70
2018-12-26T12:56:35.167Z,28.23
2018-12-26T12:57:39.746Z,33.63
2018-12-26T12:58:44.373Z,35.55
2018-12-26T12:59:49.182Z,37.35
2018-12-26T13:00:53.755Z,30.85
2018-12-26T13:01:58.387Z,36.38
2018-12-26T13:03:03.013Z,41.92
2018-12-26T13:04:07.690Z,42.55
2018-12-26T13:05:12.255Z,33.67
2018-12-26T13:06:16.808Z,37.05
2018-12-26T13:07:21.430Z,29.82
2018-12-26T13:08:26.005Z,33.90
2018-12-26T13:09:30.564Z,51.77
2018-12-26T13:10:35.142Z,31.82
2018-12-26T13:11:39.720Z,50.83
2018-12-26T13:12:44.252Z,48.75
2018-12-26T13:13:51.892Z,31.77
2018-12-26T13:14:56.602Z,32.45
2018-12-26T13:16:01.825Z,42.90
2018-12-26T13:17:06.536Z,48.95
2018-12-26T13:18:11.108Z,52.03
2018-12-26T13:19:15.674Z,46.08
2018-12-26T13:20:20.276Z,34.80
2018-12-26T13:21:24.912Z,69.10
2018-12-26T13:22:29.539Z,75.70
2018-12-26T13:23:34.092Z,40.58
2018-12-26T13:24:38.687Z,96.82
2018-12-26T13:25:43.362Z,40.70
2018-12-26T13:26:47.933Z,46.58
2018-12-26T13:27:52.484Z,40.05
2018-12-26T13:28:57.060Z,35.00
2018-12-26T13:30:01.745Z,33.92
2018-12-26T13:31:06.453Z,31.82
2018-12-26T13:32:11.078Z,36.77
2018-12-26T13:33:15.690Z,34.48
2018-12-26T13:34:20.250Z,30.20
2018-12-26T13:35:24.896Z,36.48
2018-12-26T13:36:29.506Z,45.23
2018-12-26T13:37:43.935Z,65.52
2018-12-26T13:38:48.543Z,64.42
2018-12-26T13:39:53.159Z,33.20
2018-12-26T13:40:57.693Z,33.65
2018-12-26T13:42:02.266Z,77.70
2018-12-26T13:43:06.827Z,100.33
2018-12-26T13:44:11.389Z,38.40
2018-12-26T13:45:15.959Z,60.05
2018-12-26T13:46:20.559Z,55.12
2018-12-26T13:47:25.137Z,59.75
2018-12-26T13:48:29.665Z,45.95
2018-12-26T13:49:34.207Z,43.65
2018-12-26T13:50:38.747Z,95.05
2018-12-26T13:51:43.463Z,44.00
2018-12-26T13:52:48.065Z,52.62
2018-12-26T13:53:52.617Z,40.63